Terminal Aerodrome Forecast
Issued by NWS El Paso, TX

Home | Current Version | Previous Version | Text Only | Print | Product List | Glossary On
Versions: 1 2 3 4 5 6 7 8 9 10 11 12 13
072
FTUS44 KEPZ 080520
TAFELP
TAF
KELP 080520Z 0806/0906 13007KT P6SM BKN090 OVC140
     FM080800 10010KT P6SM VCSH SCT060 BKN120 OVC180
     FM081100 07013KT P6SM VCSH SCT025 BKN070 OVC180
     FM081400 08014KT P6SM VCSH BKN028 OVC070=

USA.gov is the U.S. government's official web portal to all federal, state and local government web resources and services.